Time,TemperatureF,DewpointF,PressureIn,WindDirection,WindDirectionDegrees,WindSpeedMPH,WindSpeedGustMPH,Humidity,HourlyPrecipIn,Conditions,Clouds,dailyrainin,SoftwareType,DateUTC
2013-07-17 00:00:00,72.5,72.5,30.33,South,180,0.0,0.0,100,0.00,,SCT080,0.00,VWS V14.01,2013-07-17 04:00:00,
2013-07-17 00:01:00,72.5,72.5,30.33,South,180,0.0,0.0,100,0.00,,SCT080,0.00,VWS V14.01,2013-07-17 04:01:00,
2013-07-17 00:04:00,72.3,72.3,30.33,South,180,0.0,0.0,100,0.00,,SCT080,0.00,VWS V14.01,2013-07-17 04:04:00,
2013-07-17 00:09:00,72.3,72.3,30.33,South,180,0.0,0.0,100,0.00,,SCT080,0.00,VWS V14.01,2013-07-17 04:09:00,
2013-07-17 00:14:00,72.1,72.2,30.33,South,180,0.0,0.0,100,0.00,,SCT080,0.00,VWS V14.01,2013-07-17 04:14:00,
2013-07-17 00:19:00,72.0,72.0,30.33,South,180,0.0,0.0,100,0.00,,SCT080,0.00,VWS V14.01,2013-07-17 04:19:00,
2013-07-17 00:24:00,71.8,71.8,30.33,South,180,0.0,0.0,100,0.00,,CLR,0.00,VWS V14.01,2013-07-17 04:24:00,
2013-07-17 00:29:00,71.6,71.6,30.33,South,180,0.0,0.0,100,0.00,,CLR,0.00,VWS V14.01,2013-07-17 04:29:00,
2013-07-17 00:34:00,71.4,71.4,30.33,South,180,0.0,0.0,100,0.00,,CLR,0.00,VWS V14.01,2013-07-17 04:34:00,
2013-07-17 00:39:00,71.4,71.4,30.33,South,180,0.0,0.0,100,0.00,,CLR,0.00,VWS V14.01,2013-07-17 04:39:00,
2013-07-17 00:44:00,71.4,71.4,30.33,South,180,0.0,0.0,100,0.00,,CLR,0.00,VWS V14.01,2013-07-17 04:44:00,
2013-07-17 00:49:00,71.6,71.6,30.33,South,180,0.0,0.0,100,0.00,,CLR,0.00,VWS V14.01,2013-07-17 04:49:00,
2013-07-17 00:54:00,71.4,71.4,30.33,South,180,0.0,0.0,100,0.00,,CLR,0.00,VWS V14.01,2013-07-17 04:54:00,
2013-07-17 00:55:00,71.4,71.4,30.33,South,180,0.0,0.0,100,0.00,,CLR,0.00,VWS V14.01,2013-07-17 04:55:00,
2013-07-17 00:59:00,71.2,71.2,30.33,South,180,0.0,0.0,100,0.00,,CLR,0.00,VWS V14.01,2013-07-17 04:59:00,
2013-07-17 01:04:00,71.1,71.1,30.33,South,180,0.0,0.0,100,0.00,,CLR,0.00,VWS V14.01,2013-07-17 05:04:00,
2013-07-17 01:09:00,71.1,71.1,30.33,South,180,0.0,0.0,100,0.00,,CLR,0.00,VWS V14.01,2013-07-17 05:09:00,
2013-07-17 01:14:00,70.9,70.9,30.33,South,180,0.0,0.0,100,0.00,,CLR,0.00,VWS V14.01,2013-07-17 05:14:00,
2013-07-17 01:20:00,70.9,70.9,30.33,South,180,0.0,0.0,100,0.00,,CLR,0.00,VWS V14.01,2013-07-17 05:20:00,
2013-07-17 01:25:00,70.9,70.9,30.33,South,180,0.0,0.0,100,0.00,,CLR,0.00,VWS V14.01,2013-07-17 05:25:00,
2013-07-17 01:30:00,70.7,70.7,30.33,South,180,0.0,0.0,100,0.00,,CLR,0.00,VWS V14.01,2013-07-17 05:30:00,
2013-07-17 01:35:00,70.7,70.7,30.33,South,180,0.0,0.0,100,0.00,,CLR,0.00,VWS V14.01,2013-07-17 05:35:00,
2013-07-17 01:40:00,70.9,70.9,30.33,South,180,0.0,0.0,100,0.00,,CLR,0.00,VWS V14.01,2013-07-17 05:40:00,
2013-07-17 01:45:00,71.1,71.1,30.33,South,180,0.0,0.0,100,0.00,,CLR,0.00,VWS V14.01,2013-07-17 05:45:00,
2013-07-17 01:50:00,70.9,70.9,30.33,South,180,0.0,0.0,100,0.00,,CLR,0.00,VWS V14.01,2013-07-17 05:50:00,
2013-07-17 01:55:00,70.9,70.9,30.33,South,180,0.0,0.0,100,0.00,,CLR,0.00,VWS V14.01,2013-07-17 05:55:00,
2013-07-17 02:00:00,70.9,70.9,30.33,South,180,0.0,0.0,100,0.00,,CLR,0.00,VWS V14.01,2013-07-17 06:00:00,
2013-07-17 02:05:00,70.7,70.7,30.33,South,180,0.0,0.0,100,0.00,,CLR,0.00,VWS V14.01,2013-07-17 06:05:00,
2013-07-17 02:10:00,70.7,70.7,30.33,South,180,0.0,0.0,100,0.00,,CLR,0.00,VWS V14.01,2013-07-17 06:10:00,
2013-07-17 02:15:00,70.9,70.9,30.33,South,180,0.0,0.0,100,0.00,,CLR,0.00,VWS V14.01,2013-07-17 06:15:00,
2013-07-17 02:20:00,70.7,70.7,30.33,South,180,0.0,0.0,100,0.00,,CLR,0.00,VWS V14.01,2013-07-17 06:20:00,
2013-07-17 02:25:00,71.1,71.1,30.33,South,180,0.0,0.0,100,0.00,,CLR,0.00,VWS V14.01,2013-07-17 06:25:00,
2013-07-17 02:30:00,71.1,71.1,30.33,South,180,0.0,0.0,100,0.00,,CLR,0.00,VWS V14.01,2013-07-17 06:30:00,
2013-07-17 02:35:00,71.1,71.1,30.33,South,180,2.2,2.2,100,0.00,,CLR,0.00,VWS V14.01,2013-07-17 06:35:00,
2013-07-17 02:40:00,70.7,70.7,30.33,South,180,0.0,0.0,100,0.00,,CLR,0.00,VWS V14.01,2013-07-17 06:40:00,
2013-07-17 02:45:00,70.5,70.5,30.30,South,180,0.0,0.0,100,0.00,,CLR,0.00,VWS V14.01,2013-07-17 06:45:00,
2013-07-17 02:50:00,70.5,70.5,30.30,South,180,0.0,0.0,100,0.00,,CLR,0.00,VWS V14.01,2013-07-17 06:50:00,
2013-07-17 02:55:00,70.5,70.5,30.30,South,180,0.0,0.0,100,0.00,,CLR,0.00,VWS V14.01,2013-07-17 06:55:00,
2013-07-17 03:00:00,70.3,70.3,30.30,South,180,0.0,0.0,100,0.00,,CLR,0.00,VWS V14.01,2013-07-17 07:00:00,
2013-07-17 03:05:00,70.3,70.3,30.30,South,180,0.0,0.0,100,0.00,,CLR,0.00,VWS V14.01,2013-07-17 07:05:00,
2013-07-17 03:10:00,70.3,70.3,30.30,South,180,0.0,0.0,100,0.00,,CLR,0.00,VWS V14.01,2013-07-17 07:10:00,
2013-07-17 03:15:00,70.2,70.2,30.33,South,180,0.0,0.0,100,0.00,,CLR,0.00,VWS V14.01,2013-07-17 07:15:00,
2013-07-17 03:20:00,70.2,70.2,30.33,South,180,0.0,0.0,100,0.00,,CLR,0.00,VWS V14.01,2013-07-17 07:20:00,
2013-07-17 03:25:00,70.0,70.0,30.33,South,180,0.0,0.0,100,0.00,,CLR,0.00,VWS V14.01,2013-07-17 07:25:00,
2013-07-17 03:30:00,70.0,70.0,30.30,South,180,0.0,0.0,100,0.00,,CLR,0.00,VWS V14.01,2013-07-17 07:30:00,
2013-07-17 03:35:00,70.0,70.0,30.30,South,180,0.0,0.0,100,0.00,,CLR,0.00,VWS V14.01,2013-07-17 07:35:00,
2013-07-17 03:40:00,70.0,70.0,30.30,South,180,0.0,0.0,100,0.00,,CLR,0.00,VWS V14.01,2013-07-17 07:40:00,
2013-07-17 03:45:00,70.0,70.0,30.30,South,180,0.0,0.0,100,0.00,,CLR,0.00,VWS V14.01,2013-07-17 07:45:00,
2013-07-17 03:50:00,70.0,70.0,30.30,South,180,0.0,0.0,100,0.00,,CLR,0.00,VWS V14.01,2013-07-17 07:50:00,
2013-07-17 03:55:00,70.0,70.0,30.30,South,180,0.0,0.0,100,0.00,,CLR,0.00,VWS V14.01,2013-07-17 07:55:00,
2013-07-17 04:00:00,70.0,70.0,30.30,South,180,0.0,0.0,100,0.00,,CLR,0.00,VWS V14.01,2013-07-17 08:00:00,
2013-07-17 04:05:00,70.0,70.0,30.30,South,180,0.0,0.0,100,0.00,,CLR,0.00,VWS V14.01,2013-07-17 08:05:00,
2013-07-17 04:10:00,69.8,69.8,30.30,South,180,0.0,0.0,100,0.00,,CLR,0.00,VWS V14.01,2013-07-17 08:10:00,
2013-07-17 04:15:00,69.8,69.8,30.30,South,180,0.0,0.0,100,0.00,,CLR,0.00,VWS V14.01,2013-07-17 08:15:00,
2013-07-17 04:20:00,70.0,70.0,30.30,South,180,0.0,0.0,100,0.00,,CLR,0.00,VWS V14.01,2013-07-17 08:20:00,
2013-07-17 04:25:00,70.0,70.0,30.30,South,180,0.0,0.0,100,0.00,,CLR,0.00,VWS V14.01,2013-07-17 08:25:00,
2013-07-17 04:30:00,70.0,70.0,30.30,South,180,0.0,0.0,100,0.00,,CLR,0.00,VWS V14.01,2013-07-17 08:30:00,
2013-07-17 04:35:00,70.2,70.2,30.30,South,180,0.0,0.0,100,0.00,,CLR,0.00,VWS V14.01,2013-07-17 08:35:00,
2013-07-17 04:40:00,70.2,70.2,30.30,South,180,0.0,0.0,100,0.00,,CLR,0.00,VWS V14.01,2013-07-17 08:40:00,
2013-07-17 04:45:00,70.3,70.3,30.30,South,180,0.0,0.0,100,0.00,,CLR,0.00,VWS V14.01,2013-07-17 08:45:00,
2013-07-17 04:51:00,70.3,70.3,30.30,South,180,0.0,0.0,100,0.00,,CLR,0.00,VWS V14.01,2013-07-17 08:51:00,
2013-07-17 04:56:00,70.5,70.5,30.30,South,180,0.0,0.0,100,0.00,,CLR,0.00,VWS V14.01,2013-07-17 08:56:00,
2013-07-17 05:01:00,70.5,70.5,30.30,South,180,0.0,0.0,100,0.00,,CLR,0.00,VWS V14.01,2013-07-17 09:01:00,
2013-07-17 05:06:00,70.7,70.7,30.30,South,180,0.0,0.0,100,0.00,,CLR,0.00,VWS V14.01,2013-07-17 09:06:00,
2013-07-17 05:11:00,70.9,70.9,30.30,South,180,0.0,0.0,100,0.00,,CLR,0.00,VWS V14.01,2013-07-17 09:11:00,
2013-07-17 05:16:00,71.1,71.1,30.30,South,180,0.0,0.0,100,0.00,,CLR,0.00,VWS V14.01,2013-07-17 09:16:00,
2013-07-17 05:21:00,71.2,71.2,30.30,South,180,0.0,0.0,100,0.00,,CLR,0.00,VWS V14.01,2013-07-17 09:21:00,
2013-07-17 05:26:00,71.4,71.4,30.30,South,180,0.0,0.0,100,0.00,,CLR,0.00,VWS V14.01,2013-07-17 09:26:00,
2013-07-17 05:31:00,71.4,71.4,30.30,South,180,0.0,0.0,100,0.00,,CLR,0.00,VWS V14.01,2013-07-17 09:31:00,
2013-07-17 05:36:00,71.2,71.2,30.30,South,180,0.0,0.0,100,0.00,,CLR,0.00,VWS V14.01,2013-07-17 09:36:00,
2013-07-17 05:41:00,71.2,71.2,30.30,South,180,0.0,0.0,100,0.00,,CLR,0.00,VWS V14.01,2013-07-17 09:41:00,
2013-07-17 05:46:00,71.1,71.1,30.30,South,180,0.0,0.0,100,0.00,,CLR,0.00,VWS V14.01,2013-07-17 09:46:00,
2013-07-17 05:51:00,71.1,71.1,30.30,South,180,0.0,0.0,100,0.00,,CLR,0.00,VWS V14.01,2013-07-17 09:51:00,
2013-07-17 05:56:00,70.9,70.9,30.30,South,180,0.0,0.0,100,0.00,,CLR,0.00,VWS V14.01,2013-07-17 09:56:00,
2013-07-17 06:01:00,70.9,70.9,30.30,South,180,0.0,0.0,100,0.00,,CLR,0.00,VWS V14.01,2013-07-17 10:01:00,
2013-07-17 06:06:00,70.9,70.9,30.30,South,180,0.0,0.0,100,0.00,,CLR,0.00,VWS V14.01,2013-07-17 10:06:00,
2013-07-17 06:11:00,70.9,70.9,30.30,South,180,2.2,2.2,100,0.00,,CLR,0.00,VWS V14.01,2013-07-17 10:11:00,
2013-07-17 06:16:00,70.7,70.7,30.30,South,180,0.0,0.0,100,0.00,,CLR,0.00,VWS V14.01,2013-07-17 10:16:00,
2013-07-17 06:21:00,70.7,70.7,30.30,South,180,0.0,0.0,100,0.00,,CLR,0.00,VWS V14.01,2013-07-17 10:21:00,
2013-07-17 06:26:00,70.5,70.5,30.30,South,180,0.0,0.0,100,0.00,,CLR,0.00,VWS V14.01,2013-07-17 10:26:00,
2013-07-17 06:31:00,70.5,70.5,30.30,South,180,0.0,0.0,100,0.00,,CLR,0.00,VWS V14.01,2013-07-17 10:31:00,
2013-07-17 06:36:00,70.5,70.5,30.30,South,180,0.0,0.0,100,0.00,,CLR,0.00,VWS V14.01,2013-07-17 10:36:00,
2013-07-17 06:41:00,70.5,70.5,30.30,South,180,0.0,0.0,100,0.00,,BKN110,0.00,VWS V14.01,2013-07-17 10:41:00,
2013-07-17 06:46:00,70.7,70.7,30.30,South,180,0.0,0.0,100,0.00,,BKN110,0.00,VWS V14.01,2013-07-17 10:46:00,
2013-07-17 06:51:00,70.5,70.5,30.30,South,180,0.0,0.0,100,0.00,,BKN110,0.00,VWS V14.01,2013-07-17 10:51:00,
2013-07-17 06:56:00,70.3,70.3,30.30,South,180,0.0,0.0,100,0.00,,BKN110,0.00,VWS V14.01,2013-07-17 10:56:00,
2013-07-17 07:01:00,70.5,70.5,30.30,South,180,0.0,0.0,100,0.00,,SCT110,0.00,VWS V14.01,2013-07-17 11:01:00,
2013-07-17 07:06:00,70.5,70.5,30.30,South,180,0.0,0.0,100,0.00,,SCT110,0.00,VWS V14.01,2013-07-17 11:06:00,
2013-07-17 07:11:00,70.5,70.5,30.30,South,180,0.0,0.0,100,0.00,,SCT110,0.00,VWS V14.01,2013-07-17 11:11:00,
2013-07-17 07:16:00,70.5,70.5,30.33,South,180,0.0,0.0,100,0.00,,SCT110,0.00,VWS V14.01,2013-07-17 11:16:00,
2013-07-17 07:21:00,70.7,70.7,30.33,South,180,0.0,0.0,100,0.00,,SCT110,0.00,VWS V14.01,2013-07-17 11:21:00,
2013-07-17 07:26:00,70.9,70.9,30.33,South,180,0.0,0.0,100,0.00,,SCT110,0.00,VWS V14.01,2013-07-17 11:26:00,
2013-07-17 07:31:00,70.9,70.9,30.33,South,180,0.0,0.0,100,0.00,,SCT110,0.00,VWS V14.01,2013-07-17 11:31:00,
2013-07-17 07:36:00,71.1,71.1,30.33,South,180,0.0,0.0,100,0.00,,SCT110,0.00,VWS V14.01,2013-07-17 11:36:00,
2013-07-17 07:41:00,71.1,71.1,30.33,South,180,0.0,0.0,100,0.00,,CLR,0.00,VWS V14.01,2013-07-17 11:41:00,
2013-07-17 07:46:00,71.2,71.2,30.33,South,180,0.0,0.0,100,0.00,,CLR,0.00,VWS V14.01,2013-07-17 11:46:00,
2013-07-17 07:51:00,71.8,71.8,30.33,South,180,0.0,0.0,100,0.00,,CLR,0.00,VWS V14.01,2013-07-17 11:51:00,
2013-07-17 07:57:00,72.0,72.0,30.33,South,180,0.0,0.0,100,0.00,,CLR,0.00,VWS V14.01,2013-07-17 11:57:00,
2013-07-17 08:02:00,72.3,72.3,30.33,South,180,0.0,0.0,100,0.00,,CLR,0.00,VWS V14.01,2013-07-17 12:02:00,
2013-07-17 08:07:00,72.9,72.9,30.33,South,180,0.0,0.0,100,0.00,,CLR,0.00,VWS V14.01,2013-07-17 12:07:00,
2013-07-17 08:12:00,73.4,73.4,30.33,South,180,0.0,0.0,100,0.00,,CLR,0.00,VWS V14.01,2013-07-17 12:12:00,
2013-07-17 08:17:00,73.9,73.9,30.33,South,180,0.0,0.0,100,0.00,,CLR,0.00,VWS V14.01,2013-07-17 12:17:00,
2013-07-17 08:22:00,74.5,74.5,30.33,South,180,0.0,0.0,100,0.00,,CLR,0.00,VWS V14.01,2013-07-17 12:22:00,
2013-07-17 08:27:00,75.0,75.0,30.36,South,180,0.0,0.0,100,0.00,,CLR,0.00,VWS V14.01,2013-07-17 12:27:00,
2013-07-17 08:32:00,75.4,75.4,30.36,South,180,0.0,0.0,100,0.00,,CLR,0.00,VWS V14.01,2013-07-17 12:32:00,
2013-07-17 08:37:00,75.6,75.6,30.36,South,180,0.0,0.0,100,0.00,,CLR,0.00,VWS V14.01,2013-07-17 12:37:00,
2013-07-17 08:42:00,75.7,75.8,30.36,South,180,0.0,0.0,100,0.00,,CLR,0.00,VWS V14.01,2013-07-17 12:42:00,
2013-07-17 08:47:00,76.1,76.1,30.36,South,180,0.0,0.0,100,0.00,,CLR,0.00,VWS V14.01,2013-07-17 12:47:00,
2013-07-17 08:52:00,76.6,76.7,30.36,South,180,0.0,0.0,100,0.00,,CLR,0.00,VWS V14.01,2013-07-17 12:52:00,
2013-07-17 08:57:00,77.4,77.4,30.36,South,180,0.0,0.0,100,0.00,,CLR,0.00,VWS V14.01,2013-07-17 12:57:00,
2013-07-17 09:02:00,77.9,77.9,30.36,South,180,0.0,0.0,100,0.00,,CLR,0.00,VWS V14.01,2013-07-17 13:02:00,
2013-07-17 09:07:00,78.6,78.6,30.36,South,180,0.0,0.0,100,0.00,,CLR,0.00,VWS V14.01,2013-07-17 13:07:00,
2013-07-17 09:12:00,79.2,79.2,30.36,South,180,0.0,0.0,100,0.00,,CLR,0.00,VWS V14.01,2013-07-17 13:12:00,
2013-07-17 09:17:00,79.5,79.5,30.36,South,180,0.0,0.0,100,0.00,,CLR,0.00,VWS V14.01,2013-07-17 13:17:00,
2013-07-17 09:22:00,79.7,79.7,30.36,South,180,0.0,0.0,100,0.00,,CLR,0.00,VWS V14.01,2013-07-17 13:22:00,
2013-07-17 09:27:00,80.1,79.7,30.33,South,180,0.0,0.0,99,0.00,,CLR,0.00,VWS V14.01,2013-07-17 13:27:00,
2013-07-17 09:32:00,80.6,80.2,30.33,South,180,0.0,0.0,99,0.00,,CLR,0.00,VWS V14.01,2013-07-17 13:32:00,
2013-07-17 09:37:00,81.1,80.4,30.33,South,180,0.0,0.0,98,0.00,,CLR,0.00,VWS V14.01,2013-07-17 13:37:00,
2013-07-17 09:42:00,81.7,80.5,30.33,South,180,0.0,0.0,96,0.00,,CLR,0.00,VWS V14.01,2013-07-17 13:42:00,
2013-07-17 09:47:00,82.4,80.0,30.33,South,180,0.0,0.0,92,0.00,,CLR,0.00,VWS V14.01,2013-07-17 13:47:00,
2013-07-17 09:52:00,82.8,79.5,30.33,South,180,0.0,0.0,90,0.00,,CLR,0.00,VWS V14.01,2013-07-17 13:52:00,
2013-07-17 09:57:00,83.1,78.2,30.33,South,180,0.0,0.0,85,0.00,,CLR,0.00,VWS V14.01,2013-07-17 13:57:00,
2013-07-17 10:02:00,83.7,78.2,30.33,South,180,0.0,0.0,84,0.00,,CLR,0.00,VWS V14.01,2013-07-17 14:02:00,
2013-07-17 10:07:00,84.4,79.4,30.33,South,180,0.0,0.0,85,0.00,,CLR,0.00,VWS V14.01,2013-07-17 14:07:00,
2013-07-17 10:12:00,84.6,79.1,30.33,South,180,0.0,0.0,84,0.00,,CLR,0.00,VWS V14.01,2013-07-17 14:12:00,
2013-07-17 10:17:00,84.9,78.1,30.33,South,180,0.0,2.7,80,0.00,,CLR,0.00,VWS V14.01,2013-07-17 14:17:00,
2013-07-17 10:22:00,85.3,78.4,30.33,South,180,2.2,2.2,80,0.00,,CLR,0.00,VWS V14.01,2013-07-17 14:22:00,
2013-07-17 10:28:00,85.5,77.1,30.33,South,180,2.7,2.7,76,0.00,,CLR,0.00,VWS V14.01,2013-07-17 14:28:00,
2013-07-17 10:33:00,85.6,75.3,30.33,South,180,2.2,2.7,71,0.00,,CLR,0.00,VWS V14.01,2013-07-17 14:33:00,
2013-07-17 10:38:00,85.8,74.4,30.33,South,180,0.0,0.0,69,0.00,,CLR,0.00,VWS V14.01,2013-07-17 14:38:00,
2013-07-17 10:43:00,86.0,75.6,30.36,South,180,2.2,2.2,71,0.00,,CLR,0.00,VWS V14.01,2013-07-17 14:43:00,
2013-07-17 10:48:00,86.2,75.8,30.36,South,180,0.0,0.0,71,0.00,,CLR,0.00,VWS V14.01,2013-07-17 14:48:00,
2013-07-17 10:53:00,86.5,75.1,30.36,South,180,0.0,2.7,69,0.00,,CLR,0.00,VWS V14.01,2013-07-17 14:53:00,
2013-07-17 10:58:00,86.9,75.9,30.33,South,180,0.0,0.0,70,0.00,,CLR,0.00,VWS V14.01,2013-07-17 14:58:00,
2013-07-17 11:03:00,87.1,75.6,30.33,South,180,0.0,2.2,69,0.00,,CLR,0.00,VWS V14.01,2013-07-17 15:03:00,
2013-07-17 11:08:00,87.1,74.5,30.33,South,180,0.0,0.0,66,0.00,,CLR,0.00,VWS V14.01,2013-07-17 15:08:00,
2013-07-17 11:13:00,87.8,75.7,30.33,South,180,0.0,0.0,68,0.00,,CLR,0.00,VWS V14.01,2013-07-17 15:13:00,
2013-07-17 11:18:00,88.2,74.3,30.33,South,180,0.0,0.0,64,0.00,,CLR,0.00,VWS V14.01,2013-07-17 15:18:00,
2013-07-17 11:23:00,88.7,73.0,30.33,South,180,2.7,2.7,60,0.00,,CLR,0.00,VWS V14.01,2013-07-17 15:23:00,
2013-07-17 11:28:00,89.6,73.9,30.33,South,180,0.0,0.0,60,0.00,,CLR,0.00,VWS V14.01,2013-07-17 15:28:00,
2013-07-17 11:33:00,90.1,73.1,30.33,South,180,0.0,0.0,58,0.00,,CLR,0.00,VWS V14.01,2013-07-17 15:33:00,
2013-07-17 11:38:00,90.7,71.6,30.33,South,180,0.0,0.0,54,0.00,,CLR,0.00,VWS V14.01,2013-07-17 15:38:00,
2013-07-17 11:43:00,91.4,70.9,30.33,South,180,0.0,0.0,51,0.00,,CLR,0.00,VWS V14.01,2013-07-17 15:43:00,
2013-07-17 11:48:00,92.1,70.1,30.33,South,180,2.2,2.2,49,0.00,,CLR,0.00,VWS V14.01,2013-07-17 15:48:00,
2013-07-17 11:53:00,91.8,71.2,30.33,South,180,0.0,0.0,51,0.00,,CLR,0.00,VWS V14.01,2013-07-17 15:53:00,
2013-07-17 11:58:00,92.5,70.4,30.33,South,180,2.2,2.2,49,0.00,,CLR,0.00,VWS V14.01,2013-07-17 15:58:00,
2013-07-17 12:03:00,92.3,71.0,30.33,South,180,0.0,0.0,50,0.00,,CLR,0.00,VWS V14.01,2013-07-17 16:03:00,
2013-07-17 12:08:00,93.0,68.6,30.33,South,180,0.0,0.0,45,0.00,,CLR,0.00,VWS V14.01,2013-07-17 16:08:00,
2013-07-17 12:13:00,93.2,69.5,30.33,South,180,0.0,0.0,46,0.00,,CLR,0.00,VWS V14.01,2013-07-17 16:13:00,
2013-07-17 12:18:00,92.7,71.3,30.33,South,180,3.1,3.1,50,0.00,,CLR,0.00,VWS V14.01,2013-07-17 16:18:00,
2013-07-17 12:23:00,93.0,70.9,30.33,South,180,2.2,2.2,49,0.00,,CLR,0.00,VWS V14.01,2013-07-17 16:23:00,
2013-07-17 12:28:00,92.8,70.0,30.33,South,180,0.0,2.2,48,0.00,,CLR,0.00,VWS V14.01,2013-07-17 16:28:00,
2013-07-17 12:33:00,93.6,71.4,30.33,South,180,0.0,2.2,49,0.00,,CLR,0.00,VWS V14.01,2013-07-17 16:33:00,
2013-07-17 12:38:00,93.9,70.2,30.33,South,180,0.0,2.2,46,0.00,,CLR,0.00,VWS V14.01,2013-07-17 16:38:00,
2013-07-17 12:43:00,93.9,70.2,30.30,South,180,0.0,0.0,46,0.00,,CLR,0.00,VWS V14.01,2013-07-17 16:43:00,
2013-07-17 12:48:00,94.1,71.1,30.30,South,180,2.2,2.7,48,0.00,,CLR,0.00,VWS V14.01,2013-07-17 16:48:00,
2013-07-17 12:53:00,93.4,70.5,30.30,South,180,4.9,4.9,48,0.00,,CLR,0.00,VWS V14.01,2013-07-17 16:53:00,
2013-07-17 12:58:00,93.9,71.7,30.30,South,180,0.0,0.0,49,0.00,,CLR,0.00,VWS V14.01,2013-07-17 16:58:00,
2013-07-17 13:03:00,95.2,72.1,30.30,South,180,0.0,0.0,48,0.00,,CLR,0.00,VWS V14.01,2013-07-17 17:03:00,
2013-07-17 13:08:00,94.5,71.4,30.30,South,180,0.0,2.7,48,0.00,,CLR,0.00,VWS V14.01,2013-07-17 17:08:00,
2013-07-17 13:13:00,93.7,70.0,30.30,South,180,0.0,0.0,46,0.00,,CLR,0.00,VWS V14.01,2013-07-17 17:13:00,
2013-07-17 13:18:00,93.7,70.8,30.30,South,180,0.0,0.0,48,0.00,,CLR,0.00,VWS V14.01,2013-07-17 17:18:00,
2013-07-17 13:24:00,94.3,73.5,30.30,South,180,2.2,2.2,51,0.00,,CLR,0.00,VWS V14.01,2013-07-17 17:24:00,
2013-07-17 13:29:00,94.3,72.1,30.30,South,180,2.2,2.2,49,0.00,,CLR,0.00,VWS V14.01,2013-07-17 17:29:00,
2013-07-17 13:34:00,94.8,71.0,30.30,South,180,0.0,2.7,46,0.00,,CLR,0.00,VWS V14.01,2013-07-17 17:34:00,
2013-07-17 13:39:00,94.8,69.4,30.30,South,180,0.0,3.1,44,0.00,,CLR,0.00,VWS V14.01,2013-07-17 17:39:00,
2013-07-17 13:44:00,94.6,69.2,30.27,South,180,0.0,2.7,44,0.00,,CLR,0.00,VWS V14.01,2013-07-17 17:44:00,
2013-07-17 13:49:00,95.2,70.5,30.27,South,180,0.0,0.0,45,0.00,,CLR,0.00,VWS V14.01,2013-07-17 17:49:00,
2013-07-17 13:54:00,95.0,70.3,30.27,South,180,3.1,3.6,45,0.00,,CLR,0.00,VWS V14.01,2013-07-17 17:54:00,
2013-07-17 14:00:00,94.6,71.6,30.27,South,180,0.0,3.6,48,0.00,,CLR,0.00,VWS V14.01,2013-07-17 18:00:00,
2013-07-17 14:05:00,94.3,68.0,30.27,South,180,0.0,0.0,42,0.00,,SCT043,0.00,VWS V14.01,2013-07-17 18:05:00,
2013-07-17 14:10:00,93.4,71.2,30.27,South,180,0.0,0.0,49,0.00,,SCT043,0.00,VWS V14.01,2013-07-17 18:10:00,
2013-07-17 14:15:00,93.7,71.6,30.27,South,180,0.0,0.0,49,0.00,,SCT043,0.00,VWS V14.01,2013-07-17 18:15:00,
2013-07-17 14:20:00,92.1,71.6,30.27,South,180,0.0,0.0,51,0.00,,SCT043,0.00,VWS V14.01,2013-07-17 18:20:00,
2013-07-17 14:25:00,92.8,71.5,30.27,South,180,0.0,0.0,50,0.00,,SCT043,0.00,VWS V14.01,2013-07-17 18:25:00,
2013-07-17 14:30:00,94.3,72.8,30.24,South,180,0.0,0.0,50,0.00,,SCT043,0.00,VWS V14.01,2013-07-17 18:30:00,
2013-07-17 14:35:00,95.5,72.4,30.24,South,180,0.0,2.2,48,0.00,,SCT043,0.00,VWS V14.01,2013-07-17 18:35:00,
2013-07-17 14:40:00,95.9,72.0,30.24,South,180,0.0,2.7,46,0.00,,SCT043,0.00,VWS V14.01,2013-07-17 18:40:00,
2013-07-17 14:45:00,96.1,70.5,30.24,South,180,2.2,2.2,44,0.00,,SCT043,0.00,VWS V14.01,2013-07-17 18:45:00,
2013-07-17 14:50:00,96.1,71.3,30.24,South,180,2.2,2.2,45,0.00,,SCT043,0.00,VWS V14.01,2013-07-17 18:50:00,
2013-07-17 14:55:00,96.1,68.8,30.24,South,180,2.2,2.2,41,0.00,,SCT043,0.00,VWS V14.01,2013-07-17 18:55:00,
2013-07-17 15:00:00,95.7,66.6,30.24,South,180,2.7,2.7,39,0.00,,SCT043,0.00,VWS V14.01,2013-07-17 19:00:00,
2013-07-17 15:05:00,96.3,71.5,30.24,South,180,0.0,0.0,45,0.00,,SCT045,0.00,VWS V14.01,2013-07-17 19:05:00,
2013-07-17 15:10:00,95.9,71.2,30.24,South,180,0.0,0.0,45,0.00,,SCT045,0.00,VWS V14.01,2013-07-17 19:10:00,
2013-07-17 15:15:00,96.1,70.5,30.24,South,180,2.7,3.6,44,0.00,,SCT045,0.00,VWS V14.01,2013-07-17 19:15:00,
2013-07-17 15:20:00,95.9,68.6,30.24,South,180,0.0,2.2,41,0.00,,BKN047,0.00,VWS V14.01,2013-07-17 19:20:00,
2013-07-17 15:25:00,95.0,65.1,30.24,South,180,2.7,2.7,38,0.00,,BKN047,0.00,VWS V14.01,2013-07-17 19:25:00,
2013-07-17 15:30:00,94.6,68.3,30.24,South,180,0.0,0.0,42,0.00,,BKN047,0.00,VWS V14.01,2013-07-17 19:30:00,
2013-07-17 15:36:00,94.5,68.2,30.24,South,180,2.2,2.2,42,0.00,,BKN047,0.00,VWS V14.01,2013-07-17 19:36:00,
2013-07-17 15:41:00,93.9,68.6,30.24,South,180,2.2,2.2,44,0.00,,BKN075,0.00,VWS V14.01,2013-07-17 19:41:00,
2013-07-17 15:46:00,93.7,70.8,30.24,South,180,0.0,0.0,48,0.00,,BKN075,0.00,VWS V14.01,2013-07-17 19:46:00,
2013-07-17 15:51:00,93.6,71.4,30.24,South,180,2.2,2.7,49,0.00,,BKN075,0.00,VWS V14.01,2013-07-17 19:51:00,
2013-07-17 15:56:00,92.8,69.2,30.24,South,180,3.1,4.0,46,0.00,,BKN075,0.00,VWS V14.01,2013-07-17 19:56:00,
2013-07-17 16:01:00,93.0,71.6,30.21,South,180,0.0,2.2,50,0.00,,OVC065,0.00,VWS V14.01,2013-07-17 20:01:00,
2013-07-17 16:06:00,92.8,70.7,30.21,South,180,0.0,0.0,49,0.00,,OVC065,0.00,VWS V14.01,2013-07-17 20:06:00,
2013-07-17 16:11:00,91.8,69.8,30.21,South,180,0.0,0.0,49,0.00,,OVC065,0.00,VWS V14.01,2013-07-17 20:11:00,
2013-07-17 16:16:00,90.7,72.3,30.21,South,180,0.0,0.0,55,0.00,,OVC065,0.00,VWS V14.01,2013-07-17 20:16:00,
2013-07-17 16:22:00,89.8,72.8,30.21,South,180,0.0,0.0,58,0.00,,OVC045,0.00,VWS V14.01,2013-07-17 20:22:00,
2013-07-17 16:27:00,88.3,74.5,30.21,South,180,0.0,0.0,64,0.00,,OVC045,0.00,VWS V14.01,2013-07-17 20:27:00,
2013-07-17 16:32:00,86.7,75.2,30.21,South,180,2.2,2.2,69,0.00,,OVC045,0.00,VWS V14.01,2013-07-17 20:32:00,
2013-07-17 16:37:00,84.7,75.4,30.21,SSE,158,3.1,3.6,74,0.00,,OVC045,0.00,VWS V14.01,2013-07-17 20:37:00,
2013-07-17 16:42:00,82.2,75.9,30.21,North,0,2.7,2.7,81,0.00,,OVC043,0.00,VWS V14.01,2013-07-17 20:42:00,
2013-07-17 16:47:00,80.4,75.1,30.21,North,0,2.7,2.7,84,0.00,,OVC043,0.00,VWS V14.01,2013-07-17 20:47:00,
2013-07-17 16:53:00,79.3,75.3,30.21,WSW,248,2.7,2.7,88,0.00,,OVC043,0.00,VWS V14.01,2013-07-17 20:53:00,
2013-07-17 16:58:00,78.6,75.0,30.27,WSW,248,3.1,3.6,89,0.00,,OVC043,0.00,VWS V14.01,2013-07-17 20:58:00,
2013-07-17 17:03:00,77.5,75.2,30.27,WNW,292,0.0,3.6,92,0.00,,OVC043,0.00,VWS V14.01,2013-07-17 21:03:00,
2013-07-17 17:08:00,77.4,75.8,30.27,WNW,292,2.7,2.7,95,0.00,,OVC043,0.00,VWS V14.01,2013-07-17 21:08:00,
2013-07-17 17:13:00,77.0,75.8,30.24,WNW,292,2.2,2.2,96,0.00,,OVC043,0.00,VWS V14.01,2013-07-17 21:13:00,
2013-07-17 17:18:00,76.3,75.5,30.24,WNW,292,0.0,0.0,98,0.00,,OVC043,0.00,VWS V14.01,2013-07-17 21:18:00,
2013-07-17 17:23:00,75.9,75.2,30.24,WNW,292,2.7,2.7,98,0.00,,OVC043,0.00,VWS V14.01,2013-07-17 21:23:00,
2013-07-17 17:28:00,75.6,74.4,30.24,WNW,292,2.7,2.7,96,0.00,,OVC043,0.00,VWS V14.01,2013-07-17 21:28:00,
2013-07-17 17:33:00,75.2,74.1,30.24,WNW,292,4.0,4.0,96,0.00,,OVC043,0.00,VWS V14.01,2013-07-17 21:33:00,
2013-07-17 17:38:00,74.7,73.9,30.24,WNW,292,3.1,3.6,98,0.00,,OVC043,0.00,VWS V14.01,2013-07-17 21:38:00,
2013-07-17 17:43:00,74.3,73.2,30.24,WNW,292,3.1,3.1,96,0.00,,OVC043,0.00,VWS V14.01,2013-07-17 21:43:00,
2013-07-17 17:48:00,73.9,73.2,30.24,WNW,292,2.7,3.1,98,0.00,,OVC043,0.00,VWS V14.01,2013-07-17 21:48:00,
2013-07-17 17:53:00,73.9,73.2,30.24,WNW,292,0.0,2.2,98,0.00,,OVC043,0.00,VWS V14.01,2013-07-17 21:53:00,
2013-07-17 17:58:00,73.8,73.4,30.24,WNW,292,0.0,0.0,99,0.00,,OVC043,0.00,VWS V14.01,2013-07-17 21:58:00,
2013-07-17 18:03:00,73.4,73.0,30.24,WNW,292,0.0,0.0,99,0.00,,OVC043,0.00,VWS V14.01,2013-07-17 22:03:00,
2013-07-17 18:04:00,73.4,73.0,30.24,WNW,292,0.0,0.0,99,0.00,,OVC043,0.00,VWS V14.01,2013-07-17 22:04:00,
2013-07-17 18:09:00,73.4,73.4,30.24,WNW,292,0.0,2.7,100,0.00,,OVC043,0.00,VWS V14.01,2013-07-17 22:09:00,
2013-07-17 18:14:00,73.2,73.2,30.24,WNW,292,0.0,3.1,100,0.00,,OVC043,0.00,VWS V14.01,2013-07-17 22:14:00,
2013-07-17 18:19:00,73.2,73.2,30.24,WNW,292,2.7,2.7,100,0.00,,OVC043,0.00,VWS V14.01,2013-07-17 22:19:00,
2013-07-17 18:24:00,73.0,73.1,30.24,WNW,292,2.2,2.7,100,0.00,,OVC043,0.00,VWS V14.01,2013-07-17 22:24:00,
2013-07-17 18:29:00,72.9,72.9,30.24,WNW,292,0.0,2.2,100,0.00,,OVC043,0.00,VWS V14.01,2013-07-17 22:29:00,
2013-07-17 18:34:00,72.9,72.9,30.24,WNW,292,2.7,2.7,100,0.00,,OVC043,0.00,VWS V14.01,2013-07-17 22:34:00,
2013-07-17 18:39:00,72.9,72.9,30.24,WNW,292,2.2,2.2,100,0.00,,OVC043,0.00,VWS V14.01,2013-07-17 22:39:00,
2013-07-17 18:44:00,72.9,72.9,30.24,WNW,292,0.0,0.0,100,0.00,,OVC043,0.00,VWS V14.01,2013-07-17 22:44:00,
2013-07-17 18:49:00,72.9,72.9,30.24,WNW,292,0.0,0.0,100,0.00,,OVC043,0.00,VWS V14.01,2013-07-17 22:49:00,
2013-07-17 18:54:00,72.9,72.9,30.24,WNW,292,0.0,0.0,100,0.00,,OVC043,0.00,VWS V14.01,2013-07-17 22:54:00,
2013-07-17 18:59:00,72.9,72.9,30.27,WNW,292,0.0,2.7,100,0.00,,OVC043,0.00,VWS V14.01,2013-07-17 22:59:00,
2013-07-17 19:04:00,72.9,72.9,30.27,WNW,292,2.2,2.2,100,0.00,,OVC043,0.00,VWS V14.01,2013-07-17 23:04:00,
2013-07-17 19:09:00,73.0,73.1,30.27,WNW,292,0.0,2.7,100,0.00,,OVC043,0.00,VWS V14.01,2013-07-17 23:09:00,
2013-07-17 19:14:00,73.0,73.1,30.27,WNW,292,2.2,3.1,100,0.00,,OVC043,0.00,VWS V14.01,2013-07-17 23:14:00,
2013-07-17 19:19:00,73.0,73.1,30.27,WNW,292,2.7,2.7,100,0.00,,OVC043,0.00,VWS V14.01,2013-07-17 23:19:00,
2013-07-17 19:24:00,73.0,73.1,30.27,WNW,292,0.0,0.0,100,0.00,,OVC043,0.00,VWS V14.01,2013-07-17 23:24:00,
2013-07-17 19:29:00,73.0,73.1,30.27,WNW,292,0.0,0.0,100,0.00,,OVC043,0.00,VWS V14.01,2013-07-17 23:29:00,
2013-07-17 19:34:00,73.0,73.1,30.27,WNW,292,0.0,0.0,100,0.00,,OVC043,0.00,VWS V14.01,2013-07-17 23:34:00,
2013-07-17 19:39:00,73.0,73.1,30.27,WNW,292,0.0,0.0,100,0.00,,OVC043,0.00,VWS V14.01,2013-07-17 23:39:00,
2013-07-17 19:44:00,73.0,73.1,30.27,WNW,292,0.0,0.0,100,0.00,,OVC043,0.00,VWS V14.01,2013-07-17 23:44:00,
2013-07-17 19:49:00,73.0,73.1,30.27,WNW,292,2.2,2.2,100,0.00,,OVC043,0.00,VWS V14.01,2013-07-17 23:49:00,
2013-07-17 19:54:00,72.9,72.9,30.27,WNW,292,2.7,2.7,100,0.00,,OVC043,0.00,VWS V14.01,2013-07-17 23:54:00,
2013-07-17 20:00:00,72.7,72.7,30.27,WNW,292,0.0,2.2,100,0.00,,OVC043,0.00,VWS V14.01,2013-07-18 00:00:00,
2013-07-17 20:05:00,72.7,72.7,30.27,WNW,292,2.7,2.7,100,0.00,,OVC043,0.00,VWS V14.01,2013-07-18 00:05:00,
2013-07-17 20:10:00,72.7,72.7,30.27,WNW,292,0.0,0.0,100,0.00,,OVC043,0.00,VWS V14.01,2013-07-18 00:10:00,
2013-07-17 20:15:00,72.7,72.7,30.27,WNW,292,0.0,0.0,100,0.00,,OVC043,0.00,VWS V14.01,2013-07-18 00:15:00,
2013-07-17 20:20:00,72.7,72.7,30.27,WNW,292,0.0,0.0,100,0.00,,OVC043,0.00,VWS V14.01,2013-07-18 00:20:00,
2013-07-17 20:25:00,72.7,72.7,30.27,WNW,292,0.0,0.0,100,0.00,,OVC043,0.00,VWS V14.01,2013-07-18 00:25:00,
2013-07-17 20:30:00,72.5,72.5,30.27,WNW,292,0.0,0.0,100,0.00,,OVC043,0.00,VWS V14.01,2013-07-18 00:30:00,
2013-07-17 20:35:00,72.5,72.5,30.27,WNW,292,0.0,0.0,100,0.00,,OVC043,0.00,VWS V14.01,2013-07-18 00:35:00,
2013-07-17 20:40:00,72.5,72.5,30.27,WNW,292,0.0,0.0,100,0.00,,OVC043,0.00,VWS V14.01,2013-07-18 00:40:00,
2013-07-17 20:45:00,72.5,72.5,30.27,WNW,292,0.0,0.0,100,0.00,,OVC043,0.00,VWS V14.01,2013-07-18 00:45:00,
2013-07-17 20:50:00,72.5,72.5,30.27,WNW,292,2.7,2.7,100,0.00,,OVC043,0.00,VWS V14.01,2013-07-18 00:50:00,
2013-07-17 20:55:00,72.7,72.7,30.27,WNW,292,0.0,0.0,100,0.00,,OVC043,0.00,VWS V14.01,2013-07-18 00:55:00,
2013-07-17 21:00:00,72.7,72.7,30.27,WNW,292,0.0,0.0,100,0.00,,OVC043,0.00,VWS V14.01,2013-07-18 01:00:00,
2013-07-17 21:05:00,72.7,72.7,30.27,WNW,292,0.0,0.0,100,0.00,,OVC043,0.00,VWS V14.01,2013-07-18 01:05:00,
2013-07-17 21:10:00,72.5,72.5,30.27,WNW,292,0.0,0.0,100,0.00,,OVC043,0.00,VWS V14.01,2013-07-18 01:10:00,
2013-07-17 21:15:00,72.5,72.5,30.30,WNW,292,2.2,2.2,100,0.00,,OVC043,0.00,VWS V14.01,2013-07-18 01:15:00,
2013-07-17 21:20:00,72.7,72.7,30.30,WNW,292,0.0,2.2,100,0.00,,OVC043,0.00,VWS V14.01,2013-07-18 01:20:00,
2013-07-17 21:26:00,72.9,72.9,30.30,WNW,292,2.2,2.2,100,0.00,,OVC043,0.00,VWS V14.01,2013-07-18 01:26:00,
2013-07-17 21:31:00,72.5,72.5,30.27,WNW,292,0.0,0.0,100,0.00,,OVC043,0.00,VWS V14.01,2013-07-18 01:31:00,
2013-07-17 21:36:00,72.7,72.7,30.27,WNW,292,2.2,2.2,100,0.00,,OVC043,0.00,VWS V14.01,2013-07-18 01:36:00,
2013-07-17 21:41:00,72.7,72.7,30.27,WNW,292,0.0,0.0,100,0.00,,OVC043,0.00,VWS V14.01,2013-07-18 01:41:00,
2013-07-17 21:46:00,72.5,72.5,30.27,WNW,292,0.0,0.0,100,0.00,,OVC043,0.00,VWS V14.01,2013-07-18 01:46:00,
2013-07-17 21:51:00,72.5,72.5,30.27,WNW,292,0.0,2.2,100,0.00,,OVC043,0.00,VWS V14.01,2013-07-18 01:51:00,
2013-07-17 21:56:00,72.5,72.5,30.27,WNW,292,0.0,0.0,100,0.00,,OVC043,0.00,VWS V14.01,2013-07-18 01:56:00,
2013-07-17 22:01:00,72.5,72.5,30.27,WNW,292,0.0,0.0,100,0.00,,OVC043,0.00,VWS V14.01,2013-07-18 02:01:00,
2013-07-17 22:06:00,72.5,72.5,30.27,WNW,292,2.2,2.2,100,0.00,,OVC043,0.00,VWS V14.01,2013-07-18 02:06:00,
2013-07-17 22:11:00,72.9,72.9,30.27,WNW,292,0.0,0.0,100,0.00,,OVC043,0.00,VWS V14.01,2013-07-18 02:11:00,
2013-07-17 22:16:00,72.7,72.7,30.27,WNW,292,0.0,0.0,100,0.00,,OVC043,0.00,VWS V14.01,2013-07-18 02:16:00,
2013-07-17 22:21:00,72.7,72.7,30.27,WNW,292,0.0,0.0,100,0.00,,OVC043,0.00,VWS V14.01,2013-07-18 02:21:00,
2013-07-17 22:26:00,72.9,72.9,30.27,WNW,292,0.0,0.0,100,0.00,,OVC043,0.00,VWS V14.01,2013-07-18 02:26:00,
2013-07-17 22:31:00,73.0,73.1,30.27,WNW,292,0.0,0.0,100,0.00,,OVC043,0.00,VWS V14.01,2013-07-18 02:31:00,
2013-07-17 22:36:00,73.0,73.1,30.27,WNW,292,0.0,0.0,100,0.00,,OVC043,0.00,VWS V14.01,2013-07-18 02:36:00,
2013-07-17 22:41:00,72.9,72.9,30.27,WNW,292,0.0,0.0,100,0.00,,OVC043,0.00,VWS V14.01,2013-07-18 02:41:00,
2013-07-17 22:46:00,72.7,72.7,30.27,WNW,292,0.0,0.0,100,0.00,,OVC043,0.00,VWS V14.01,2013-07-18 02:46:00,
2013-07-17 22:51:00,72.7,72.7,30.27,WNW,292,0.0,0.0,100,0.00,,OVC043,0.00,VWS V14.01,2013-07-18 02:51:00,
2013-07-17 22:56:00,72.7,72.7,30.30,WNW,292,0.0,0.0,100,0.00,,OVC043,0.00,VWS V14.01,2013-07-18 02:56:00,
2013-07-17 23:01:00,72.9,72.9,30.30,WNW,292,0.0,0.0,100,0.00,,OVC043,0.00,VWS V14.01,2013-07-18 03:01:00,
2013-07-17 23:06:00,72.9,72.9,30.30,WNW,292,0.0,0.0,100,0.00,,OVC043,0.00,VWS V14.01,2013-07-18 03:06:00,
2013-07-17 23:11:00,73.0,73.1,30.27,WNW,292,0.0,0.0,100,0.00,,OVC043,0.00,VWS V14.01,2013-07-18 03:11:00,
2013-07-17 23:16:00,72.9,72.9,30.27,WNW,292,0.0,0.0,100,0.00,,OVC043,0.00,VWS V14.01,2013-07-18 03:16:00,
2013-07-17 23:22:00,72.7,72.7,30.27,WNW,292,0.0,0.0,100,0.00,,OVC043,0.00,VWS V14.01,2013-07-18 03:22:00,
2013-07-17 23:27:00,72.5,72.5,30.27,WNW,292,0.0,0.0,100,0.00,,OVC043,0.00,VWS V14.01,2013-07-18 03:27:00,
2013-07-17 23:32:00,72.3,72.3,30.27,WNW,292,0.0,0.0,100,0.00,,OVC043,0.00,VWS V14.01,2013-07-18 03:32:00,
2013-07-17 23:37:00,71.8,71.8,30.27,WNW,292,0.0,0.0,100,0.00,,OVC043,0.00,VWS V14.01,2013-07-18 03:37:00,
2013-07-17 23:42:00,71.8,71.8,30.27,WNW,292,0.0,0.0,100,0.00,,OVC043,0.00,VWS V14.01,2013-07-18 03:42:00,
2013-07-17 23:47:00,71.6,71.6,30.27,WNW,292,0.0,0.0,100,0.00,,OVC043,0.00,VWS V14.01,2013-07-18 03:47:00,
2013-07-17 23:52:00,71.6,71.6,30.27,WNW,292,0.0,0.0,100,0.00,,OVC043,0.00,VWS V14.01,2013-07-18 03:52:00,
2013-07-17 23:57:00,71.4,71.4,30.27,WNW,292,0.0,0.0,100,0.00,,OVC043,0.00,VWS V14.01,2013-07-18 03:57:00,